createdAt,value
2022-11-02T00:00:13.884Z,101239.63
2022-11-02T00:01:25.486Z,101233.59
2022-11-02T00:02:28.283Z,101229.97
2022-11-02T00:03:30.928Z,101235.22
2022-11-02T00:04:33.504Z,101236.91
2022-11-02T00:05:36.331Z,101229.19
2022-11-02T00:06:41.357Z,101234.28
2022-11-02T00:07:43.976Z,101231.66
2022-11-02T00:08:48.026Z,101245.69
2022-11-02T00:09:50.593Z,101236.06
2022-11-02T00:10:53.226Z,101243.09
2022-11-02T00:11:56.176Z,101240.44
2022-11-02T00:12:58.977Z,101241.28
2022-11-02T00:14:01.965Z,101248.31
2022-11-02T00:15:05.574Z,101247.56
2022-11-02T00:16:12.949Z,101242.31
2022-11-02T00:17:16.043Z,101256.31
2022-11-02T00:18:18.697Z,101250.19
2022-11-02T00:19:21.371Z,101253.72
2022-11-02T00:20:24.212Z,101258.94
2022-11-02T00:21:27.721Z,101263.25
2022-11-02T00:22:30.805Z,101256.31
2022-11-02T00:23:34.034Z,101265.06
2022-11-02T00:24:36.883Z,101252.94
2022-11-02T00:25:42.200Z,101256.34
2022-11-02T00:26:44.874Z,101258.28
2022-11-02T00:27:47.993Z,101259.91
2022-11-02T00:28:50.763Z,101257.28
2022-11-02T00:29:53.912Z,101261.59
2022-11-02T00:30:56.832Z,101258.97
2022-11-02T00:32:00.266Z,101258.19
2022-11-02T00:33:03.886Z,101252.03
2022-11-02T00:34:06.739Z,101256.34
2022-11-02T00:35:10.437Z,101241.47
2022-11-02T00:36:13.111Z,101231.22
2022-11-02T00:37:15.946Z,101237.06
2022-11-02T00:38:18.862Z,101233.53
2022-11-02T00:39:21.510Z,101234.44
2022-11-02T00:40:24.114Z,101233.59
2022-11-02T00:41:27.011Z,101237.06
2022-11-02T00:42:29.670Z,101230.13
2022-11-02T00:43:33.340Z,101236.44
2022-11-02T00:44:35.875Z,101233.81
2022-11-02T00:45:38.475Z,101230.25
2022-11-02T00:46:41.420Z,101231.94
2022-11-02T00:47:44.094Z,101231.94
2022-11-02T00:48:47.088Z,101236.34
2022-11-02T00:49:49.698Z,101237.19
2022-11-02T00:50:52.867Z,101238.06
2022-11-02T00:51:56.747Z,101232.06
2022-11-02T00:52:59.464Z,101236.44
2022-11-02T00:54:02.773Z,101242.53
2022-11-02T00:55:06.761Z,101247.78
2022-11-02T00:56:09.551Z,101254.84
2022-11-02T00:57:12.738Z,101253.06
2022-11-02T00:58:15.475Z,101261.88
2022-11-02T00:59:18.366Z,101256.63
2022-11-02T01:00:21.142Z,101257.47
2022-11-02T01:01:24.021Z,101261.88
2022-11-02T01:02:27.279Z,101259.38
2022-11-02T01:03:30.080Z,101254.97
2022-11-02T01:04:33.129Z,101261.16
2022-11-02T01:05:36.963Z,101261.03
2022-11-02T01:06:39.583Z,101258.44
2022-11-02T01:07:42.426Z,101259.31
2022-11-02T01:08:45.052Z,101247.19
2022-11-02T01:09:48.300Z,101256.75
2022-11-02T01:10:51.104Z,101255.06
2022-11-02T01:11:54.631Z,101255.06
2022-11-02T01:12:57.368Z,101248.09
2022-11-02T01:13:59.973Z,101254.13
2022-11-02T01:15:03.506Z,101242.00
2022-11-02T01:16:06.602Z,101246.31
2022-11-02T01:17:09.257Z,101250.72
2022-11-02T01:18:12.056Z,101241.94
2022-11-02T01:19:14.955Z,101246.31
2022-11-02T01:20:18.045Z,101245.47
2022-11-02T01:21:21.424Z,101236.75
2022-11-02T01:22:24.087Z,101241.94
2022-11-02T01:23:27.133Z,101237.59
2022-11-02T01:24:30.295Z,101236.69
2022-11-02T01:25:33.201Z,101238.44
2022-11-02T01:26:35.835Z,101238.44
2022-11-02T01:27:38.480Z,101239.44
2022-11-02T01:28:41.504Z,101241.19
2022-11-02T01:29:44.220Z,101242.84
2022-11-02T01:30:48.733Z,101245.47
2022-11-02T01:31:53.728Z,101238.56
2022-11-02T01:32:56.358Z,101245.47
2022-11-02T01:33:59.027Z,101241.16
2022-11-02T01:35:02.944Z,101247.25
2022-11-02T01:36:07.424Z,101246.41
2022-11-02T01:37:10.787Z,101247.31
2022-11-02T01:38:14.489Z,101242.00
2022-11-02T01:39:17.193Z,101239.38
2022-11-02T01:40:19.859Z,101235.81
2022-11-02T01:41:22.788Z,101228.88
2022-11-02T01:42:28.077Z,101221.97
2022-11-02T01:43:34.541Z,101221.94
2022-11-02T01:44:37.204Z,101226.34
2022-11-02T01:45:39.833Z,101231.59
2022-11-02T01:46:47.075Z,101225.47
2022-11-02T01:47:50.835Z,101226.25
2022-11-02T01:49:05.284Z,101232.44
2022-11-02T01:50:27.931Z,101224.47
2022-11-02T01:51:35.229Z,101224.56
2022-11-02T01:52:39.976Z,101234.22
2022-11-02T01:53:45.966Z,101234.22
2022-11-02T01:55:01.697Z,101238.53
2022-11-02T01:56:05.694Z,101239.44
2022-11-02T01:57:10.702Z,101241.16
2022-11-02T01:58:13.736Z,101237.69
2022-11-02T01:59:29.143Z,101241.19
2022-11-02T02:00:31.909Z,101242.97
2022-11-02T02:01:35.507Z,101248.22
2022-11-02T02:02:51.306Z,101247.37
2022-11-02T02:03:54.883Z,101250.94
2022-11-02T02:05:09.046Z,101250.00
2022-11-02T02:06:15.586Z,101244.69
2022-11-02T02:07:20.421Z,101238.66
2022-11-02T02:08:25.585Z,101233.47
2022-11-02T02:09:29.940Z,101230.78
2022-11-02T02:10:32.908Z,101231.75
2022-11-02T02:11:40.394Z,101220.28
2022-11-02T02:12:44.324Z,101223.06
2022-11-02T02:13:47.782Z,101222.06
2022-11-02T02:14:51.059Z,101225.59
2022-11-02T02:16:19.058Z,101229.22
2022-11-02T02:17:44.554Z,101236.16
2022-11-02T02:18:59.985Z,101234.38
2022-11-02T02:20:22.187Z,101243.09
2022-11-02T02:21:31.549Z,101246.56
2022-11-02T02:23:02.662Z,101250.22
2022-11-02T02:24:23.406Z,101251.91
2022-11-02T02:25:52.916Z,101244.84
2022-11-02T02:27:16.225Z,101242.12
2022-11-02T02:28:41.874Z,101240.34
2022-11-02T02:30:05.864Z,101242.12
2022-11-02T02:31:16.431Z,101241.28
2022-11-02T02:32:36.843Z,101249.16
2022-11-02T02:33:44.015Z,101252.72
2022-11-02T02:34:55.210Z,101241.41
2022-11-02T02:36:05.584Z,101258.81
2022-11-02T02:37:17.092Z,101257.88
2022-11-02T02:38:29.742Z,101249.06
2022-11-02T02:39:52.088Z,101252.50
2022-11-02T02:41:19.447Z,101249.03
2022-11-02T02:42:24.106Z,101246.41
2022-11-02T02:43:36.972Z,101255.19
2022-11-02T02:44:50.272Z,101257.81
2022-11-02T02:45:59.397Z,101257.81
2022-11-02T02:47:23.491Z,101269.22
2022-11-02T02:48:27.016Z,101268.38
2022-11-02T02:49:45.004Z,101274.53
2022-11-02T02:50:57.056Z,101271.91
2022-11-02T02:52:00.536Z,101271.97
2022-11-02T02:53:05.752Z,101271.91
2022-11-02T02:54:15.128Z,101275.38
2022-11-02T02:55:23.147Z,101260.56
2022-11-02T02:56:30.863Z,101269.28
2022-11-02T02:57:36.360Z,101270.28
2022-11-02T02:58:47.902Z,101273.97
2022-11-02T02:59:50.663Z,101272.09
2022-11-02T03:00:55.215Z,101271.34
2022-11-02T03:01:58.954Z,101276.44
2022-11-02T03:03:04.746Z,101285.09
2022-11-02T03:04:12.250Z,101273.75
2022-11-02T03:05:26.010Z,101279.06
2022-11-02T03:06:35.276Z,101275.66
2022-11-02T03:07:39.078Z,101273.03
2022-11-02T03:08:49.564Z,101271.34
2022-11-02T03:10:14.302Z,101271.25
2022-11-02T03:11:20.635Z,101272.19
2022-11-02T03:12:29.830Z,101276.50
2022-11-02T03:14:14.134Z,101274.72
2022-11-02T03:15:22.944Z,101273.03
2022-11-02T03:16:35.338Z,101273.03
2022-11-02T03:18:03.330Z,101270.44
2022-11-02T03:19:21.000Z,101264.34
2022-11-02T03:20:29.542Z,101262.53
2022-11-02T03:21:44.302Z,101269.56
2022-11-02T03:23:28.957Z,101257.28
2022-11-02T03:24:42.585Z,101258.13
2022-11-02T03:25:59.100Z,101262.53
2022-11-02T03:27:32.329Z,101261.56
2022-11-02T03:28:47.139Z,101268.56
2022-11-02T03:30:15.990Z,101267.69
2022-11-02T03:31:36.600Z,101274.72
2022-11-02T03:32:52.977Z,101265.97
2022-11-02T03:34:20.076Z,101268.50
2022-11-02T03:35:36.115Z,101263.34
2022-11-02T03:36:49.678Z,101257.19
2022-11-02T03:38:01.242Z,101258.09
2022-11-02T03:39:09.109Z,101257.19
2022-11-02T03:40:28.611Z,101258.97
2022-11-02T03:41:33.166Z,101260.75
2022-11-02T03:42:37.098Z,101260.87
2022-11-02T03:43:41.921Z,101260.03
2022-11-02T03:44:47.938Z,101267.84
2022-11-02T03:45:55.261Z,101262.53
2022-11-02T03:47:00.329Z,101254.00
2022-11-02T03:48:08.752Z,101263.38
2022-11-02T03:49:18.301Z,101262.53
2022-11-02T03:50:23.622Z,101272.09
2022-11-02T03:51:29.619Z,101261.69
2022-11-02T03:52:37.363Z,101264.09
2022-11-02T03:53:58.715Z,101270.13
2022-11-02T03:55:07.835Z,101267.50
2022-11-02T03:56:19.432Z,101263.97
2022-11-02T03:57:27.838Z,101263.97
2022-11-02T03:58:30.719Z,101269.28
2022-11-02T03:59:33.510Z,101266.59
2022-11-02T04:00:38.450Z,101270.06
2022-11-02T04:01:46.989Z,101270.06
2022-11-02T04:02:54.171Z,101275.25
2022-11-02T04:03:57.132Z,101265.75
2022-11-02T04:05:00.192Z,101272.62
2022-11-02T04:06:03.595Z,101274.47
2022-11-02T04:07:06.853Z,101272.75
2022-11-02T04:08:21.978Z,101275.44
2022-11-02T04:09:24.795Z,101278.06
2022-11-02T04:10:28.080Z,101281.47
2022-11-02T04:11:50.888Z,101281.56
2022-11-02T04:13:12.424Z,101283.25
2022-11-02T04:14:33.634Z,101281.56
2022-11-02T04:15:36.381Z,101282.41
2022-11-02T04:16:39.361Z,101281.56
2022-11-02T04:18:01.515Z,101276.31
2022-11-02T04:19:23.589Z,101283.38
2022-11-02T04:20:26.807Z,101278.94
2022-11-02T04:21:30.828Z,101286.81
2022-11-02T04:22:52.704Z,101285.03
2022-11-02T04:24:13.989Z,101286.81
2022-11-02T04:25:19.408Z,101291.13
2022-11-02T04:26:22.444Z,101285.88
2022-11-02T04:27:25.887Z,101288.50
2022-11-02T04:28:28.839Z,101283.25
2022-11-02T04:29:31.960Z,101278.88
2022-11-02T04:30:34.942Z,101282.34
2022-11-02T04:31:37.641Z,101283.19
2022-11-02T04:33:00.676Z,101279.72
2022-11-02T04:34:03.512Z,101271.06
2022-11-02T04:35:07.283Z,101278.88
2022-11-02T04:36:10.582Z,101271.84
2022-11-02T04:37:32.499Z,101270.00
2022-11-02T04:38:43.278Z,101268.44
2022-11-02T04:39:46.241Z,101266.94
2022-11-02T04:40:51.117Z,101262.53
2022-11-02T04:41:54.285Z,101262.72
2022-11-02T04:42:57.308Z,101267.91
2022-11-02T04:44:00.288Z,101271.25
2022-11-02T04:45:02.976Z,101264.22
2022-11-02T04:46:05.894Z,101257.06
2022-11-02T04:47:09.224Z,101257.03
2022-11-02T04:48:11.898Z,101253.72
2022-11-02T04:49:14.788Z,101256.31
2022-11-02T04:50:17.605Z,101259.78
2022-11-02T04:51:21.909Z,101257.94
2022-11-02T04:52:25.304Z,101271.06
2022-11-02T04:53:27.895Z,101265.03
2022-11-02T04:54:30.902Z,101260.63
2022-11-02T04:55:35.497Z,101255.47
2022-11-02T04:56:38.877Z,101256.31
2022-11-02T04:57:45.587Z,101248.34
2022-11-02T04:58:52.168Z,101248.50
2022-11-02T04:59:55.326Z,101262.31
2022-11-02T05:00:58.486Z,101258.94
2022-11-02T05:02:01.217Z,101276.44
2022-11-02T05:03:08.219Z,101261.56
2022-11-02T05:04:14.431Z,101252.75
2022-11-02T05:05:18.177Z,101253.69
2022-11-02T05:06:22.915Z,101256.31
2022-11-02T05:07:25.743Z,101258.22
2022-11-02T05:08:28.718Z,101263.66
2022-11-02T05:09:31.389Z,101264.63
2022-11-02T05:10:34.017Z,101263.66
2022-11-02T05:11:36.662Z,101260.09
2022-11-02T05:12:39.445Z,101265.28
2022-11-02T05:13:44.641Z,101266.09
2022-11-02T05:14:47.480Z,101258.25
2022-11-02T05:15:50.514Z,101264.44
2022-11-02T05:16:53.734Z,101267.91
2022-11-02T05:17:56.405Z,101267.97
2022-11-02T05:18:59.441Z,101274.13
2022-11-02T05:20:03.276Z,101270.59
2022-11-02T05:21:06.117Z,101260.16
2022-11-02T05:22:08.792Z,101263.50
2022-11-02T05:23:11.449Z,101264.34
2022-11-02T05:24:14.938Z,101266.12
2022-11-02T05:25:18.032Z,101277.56
2022-11-02T05:26:20.710Z,101269.75
2022-11-02T05:27:23.762Z,101270.59
2022-11-02T05:28:29.018Z,101281.06
2022-11-02T05:29:32.388Z,101278.44
2022-11-02T05:30:35.220Z,101282.84
2022-11-02T05:31:37.910Z,101280.19
2022-11-02T05:32:40.546Z,101285.44
2022-11-02T05:33:43.197Z,101284.44
2022-11-02T05:34:46.358Z,101285.34
2022-11-02T05:35:49.929Z,101287.13
2022-11-02T05:36:53.565Z,101295.00
2022-11-02T05:37:56.343Z,101293.22
2022-11-02T05:38:59.413Z,101294.00
2022-11-02T05:40:02.638Z,101294.81
2022-11-02T05:41:05.990Z,101293.81
2022-11-02T05:42:08.952Z,101300.78
2022-11-02T05:43:11.886Z,101301.63
2022-11-02T05:44:14.828Z,101300.81
2022-11-02T05:45:21.977Z,101307.00
2022-11-02T05:46:27.479Z,101301.69
2022-11-02T05:47:30.116Z,101304.31
2022-11-02T05:48:33.725Z,101311.31
2022-11-02T05:49:37.497Z,101321.81
2022-11-02T05:50:40.408Z,101314.03
2022-11-02T05:51:44.554Z,101320.16
2022-11-02T05:52:51.268Z,101332.31
2022-11-02T05:53:54.019Z,101334.03
2022-11-02T05:54:56.568Z,101337.56
2022-11-02T05:56:03.785Z,101338.41
2022-11-02T05:57:07.010Z,101338.50
2022-11-02T05:58:11.970Z,101341.13
2022-11-02T05:59:14.754Z,101344.66
2022-11-02T06:00:17.576Z,101342.81
2022-11-02T06:01:23.963Z,101341.97
2022-11-02T06:02:28.000Z,101345.50
2022-11-02T06:03:32.117Z,101349.91
2022-11-02T06:04:35.036Z,101349.09
2022-11-02T06:05:37.798Z,101343.78
2022-11-02T06:06:41.062Z,101349.91
2022-11-02T06:07:44.033Z,101300.16
2022-11-02T06:08:46.779Z,101351.66
2022-11-02T06:09:49.402Z,101349.03
2022-11-02T06:10:52.025Z,101356.00
2022-11-02T06:11:56.225Z,101349.91
2022-11-02T06:13:01.772Z,101355.28
2022-11-02T06:14:04.631Z,101363.88
2022-11-02T06:15:07.802Z,101376.03
2022-11-02T06:16:12.660Z,101366.50
2022-11-02T06:17:15.911Z,101363.78
2022-11-02T06:18:19.988Z,101368.16
2022-11-02T06:19:22.677Z,101371.75
2022-11-02T06:20:25.326Z,101370.03
2022-11-02T06:21:27.993Z,101375.25
2022-11-02T06:22:30.945Z,101377.75
2022-11-02T06:23:34.462Z,101372.47
2022-11-02T06:24:37.116Z,101380.34
2022-11-02T06:25:39.747Z,101377.59
2022-11-02T06:26:43.051Z,101382.00
2022-11-02T06:27:57.064Z,101388.88
2022-11-02T06:28:59.979Z,101375.87
2022-11-02T06:30:04.770Z,101390.47
2022-11-02T06:31:07.732Z,101391.25
2022-11-02T06:32:10.336Z,101385.22
2022-11-02T06:33:13.824Z,101397.28
2022-11-02T06:34:16.683Z,101401.62
2022-11-02T06:35:23.685Z,101398.06
2022-11-02T06:36:26.331Z,101390.31
2022-11-02T06:37:33.845Z,101401.62
2022-11-02T06:38:38.689Z,101394.59
2022-11-02T06:39:41.391Z,101400.66
2022-11-02T06:40:44.593Z,101399.78
2022-11-02T06:41:47.169Z,101394.59
2022-11-02T06:43:17.861Z,101391.78
2022-11-02T06:44:20.971Z,101392.78
2022-11-02T06:45:27.122Z,101388.97
2022-11-02T06:46:29.800Z,101389.91
2022-11-02T06:47:34.438Z,101396.63
2022-11-02T06:48:37.127Z,101395.59
2022-11-02T06:49:40.391Z,101388.63
2022-11-02T06:50:43.163Z,101391.16
2022-11-02T06:51:45.888Z,101390.09
2022-11-02T06:52:48.940Z,101394.38
2022-11-02T06:53:51.837Z,101391.62
2022-11-02T06:54:55.867Z,101389.56
2022-11-02T06:55:59.888Z,101388.47
2022-11-02T06:57:02.587Z,101388.06
2022-11-02T06:58:05.755Z,101392.06
2022-11-02T06:59:09.347Z,101393.47
2022-11-02T07:00:20.951Z,101391.56
2022-11-02T07:01:26.791Z,101387.69
2022-11-02T07:02:29.821Z,101389.37
2022-11-02T07:03:33.526Z,101389.84
2022-11-02T07:04:36.153Z,101394.66
2022-11-02T07:05:39.130Z,101394.13
2022-11-02T07:06:41.738Z,101376.72
2022-11-02T07:07:44.369Z,101376.63
2022-11-02T07:08:46.991Z,101375.87
2022-11-02T07:09:49.818Z,101383.44
2022-11-02T07:10:52.772Z,101390.28
2022-11-02T07:11:55.396Z,101380.53
2022-11-02T07:12:58.745Z,101384.34
2022-11-02T07:14:01.373Z,101389.50
2022-11-02T07:15:04.284Z,101381.12
2022-11-02T07:16:07.319Z,101392.84
2022-11-02T07:17:10.710Z,101391.75
2022-11-02T07:18:14.269Z,101381.63
2022-11-02T07:19:16.943Z,101374.22
2022-11-02T07:20:20.261Z,101379.19
2022-11-02T07:21:23.476Z,101380.31
2022-11-02T07:22:26.140Z,101390.56
2022-11-02T07:23:31.092Z,101378.28
2022-11-02T07:24:33.726Z,101386.09
2022-11-02T07:25:36.437Z,101389.97
2022-11-02T07:26:39.383Z,101392.16
2022-11-02T07:27:41.976Z,101385.87
2022-11-02T07:28:46.272Z,101393.09
2022-11-02T07:29:49.488Z,101387.13
2022-11-02T07:30:54.360Z,101389.66
2022-11-02T07:31:57.294Z,101377.91
2022-11-02T07:33:00.045Z,101383.88
2022-11-02T07:34:02.699Z,101386.03
2022-11-02T07:35:06.995Z,101382.87
2022-11-02T07:36:09.712Z,101379.81
2022-11-02T07:37:12.574Z,101379.50
2022-11-02T07:38:15.218Z,101385.16
2022-11-02T07:39:19.014Z,101373.38
2022-11-02T07:40:22.241Z,101382.78
2022-11-02T07:41:25.063Z,101375.09
2022-11-02T07:42:28.024Z,101380.88
2022-11-02T07:43:32.557Z,101372.87
2022-11-02T07:44:35.475Z,101380.53
2022-11-02T07:45:38.093Z,101377.38
2022-11-02T07:46:40.628Z,101381.72
2022-11-02T07:47:48.471Z,101385.31
2022-11-02T07:48:51.200Z,101372.69
2022-11-02T07:49:53.853Z,101377.13
2022-11-02T07:51:00.020Z,101380.09
2022-11-02T07:52:02.655Z,101376.94
2022-11-02T07:53:06.001Z,101381.38
2022-11-02T07:54:09.449Z,101380.03
2022-11-02T07:55:13.818Z,101377.53
2022-11-02T07:56:16.750Z,101376.69
2022-11-02T07:57:19.857Z,101385.47
2022-11-02T07:58:27.045Z,101382.25
2022-11-02T07:59:29.728Z,101382.00
2022-11-02T08:00:34.599Z,101378.12
2022-11-02T08:01:37.570Z,101390.81
2022-11-02T08:02:40.606Z,101391.31
2022-11-02T08:03:43.297Z,101387.00
2022-11-02T08:04:45.889Z,101396.88
2022-11-02T08:05:48.717Z,101391.25
2022-11-02T08:06:51.904Z,101397.16
2022-11-02T08:08:15.066Z,101401.41
2022-11-02T08:09:17.676Z,101400.97
2022-11-02T08:10:20.297Z,101399.25
2022-11-02T08:11:22.968Z,101394.72
2022-11-02T08:12:26.526Z,101397.97
2022-11-02T08:13:32.680Z,101393.88
2022-11-02T08:14:35.631Z,101395.91
2022-11-02T08:15:38.542Z,101393.09
2022-11-02T08:16:41.414Z,101398.25
2022-11-02T08:17:44.329Z,101394.81
2022-11-02T08:18:47.131Z,101392.94
2022-11-02T08:19:49.794Z,101400.91
2022-11-02T08:20:54.248Z,101393.00
2022-11-02T08:21:58.680Z,101395.28
2022-11-02T08:23:01.742Z,101398.47
2022-11-02T08:24:04.675Z,101396.22
2022-11-02T08:25:08.436Z,101392.16
2022-11-02T08:26:11.274Z,101387.31
2022-11-02T08:27:22.331Z,101383.47
2022-11-02T08:28:28.095Z,101386.03
2022-11-02T08:29:30.854Z,101379.06
2022-11-02T08:30:34.149Z,101384.81
2022-11-02T08:31:36.743Z,101387.00
2022-11-02T08:32:39.401Z,101383.41
2022-11-02T08:33:43.751Z,101384.88
2022-11-02T08:34:49.607Z,101384.72
2022-11-02T08:36:05.394Z,101390.03
2022-11-02T08:37:09.914Z,101389.19
2022-11-02T08:38:18.418Z,101380.25
2022-11-02T08:39:21.580Z,101376.09
2022-11-02T08:40:24.713Z,101386.47
2022-11-02T08:41:27.629Z,101384.09
2022-11-02T08:42:30.388Z,101384.47
2022-11-02T08:43:33.027Z,101382.50
2022-11-02T08:44:41.481Z,101384.62
2022-11-02T08:46:14.492Z,101386.53
2022-11-02T08:47:09.678Z,101387.59
2022-11-02T08:48:12.752Z,101387.22
2022-11-02T08:49:18.696Z,101391.81
2022-11-02T08:50:23.203Z,101385.22
2022-11-02T08:51:26.065Z,101389.84
2022-11-02T08:52:28.783Z,101385.78
2022-11-02T08:53:31.516Z,101386.31
2022-11-02T08:54:34.221Z,101375.47
2022-11-02T08:55:37.160Z,101375.87
2022-11-02T08:56:40.117Z,101371.53
2022-11-02T08:57:49.783Z,101368.44
2022-11-02T08:58:52.468Z,101373.28
2022-11-02T08:59:55.133Z,101366.81
2022-11-02T09:00:58.148Z,101368.19
2022-11-02T09:02:00.944Z,101369.84
2022-11-02T09:03:06.392Z,101370.13
2022-11-02T09:04:09.135Z,101362.97
2022-11-02T09:05:11.937Z,101369.16
2022-11-02T09:06:14.918Z,101363.00
2022-11-02T09:07:17.580Z,101364.59
2022-11-02T09:08:20.757Z,101365.91
2022-11-02T09:09:23.611Z,101376.06
2022-11-02T09:10:28.017Z,101368.53
2022-11-02T09:11:31.330Z,101368.75
2022-11-02T09:12:37.050Z,101371.09
2022-11-02T09:13:39.817Z,101362.53
2022-11-02T09:14:42.594Z,101367.69
2022-11-02T09:15:45.257Z,101359.41
2022-11-02T09:16:48.130Z,101360.47
2022-11-02T09:17:51.185Z,101364.78
2022-11-02T09:18:53.815Z,101351.84
2022-11-02T09:19:56.544Z,101355.37
2022-11-02T09:21:03.052Z,101349.91
2022-11-02T09:22:05.999Z,101353.19
2022-11-02T09:23:08.714Z,101350.44
2022-11-02T09:24:11.372Z,101355.28
2022-11-02T09:25:15.168Z,101351.66
2022-11-02T09:26:17.905Z,101349.06
2022-11-02T09:27:20.866Z,101342.63
2022-11-02T09:28:23.594Z,101342.97
2022-11-02T09:29:26.165Z,101343.94
2022-11-02T09:30:29.183Z,101343.47
2022-11-02T09:31:31.861Z,101342.44
2022-11-02T09:32:34.831Z,101347.19
2022-11-02T09:33:37.636Z,101347.94
2022-11-02T09:34:40.657Z,101349.31
2022-11-02T09:35:46.447Z,101341.31
2022-11-02T09:36:49.016Z,101343.69
2022-11-02T09:37:51.953Z,101342.03
2022-11-02T09:38:54.567Z,101344.38
2022-11-02T09:39:57.598Z,101339.69
2022-11-02T09:41:00.157Z,101347.94
2022-11-02T09:42:22.820Z,101347.38
2022-11-02T09:43:30.970Z,101343.28
2022-11-02T09:44:51.049Z,101338.28
2022-11-02T09:46:06.618Z,101338.50
2022-11-02T09:48:45.601Z,101335.41
2022-11-02T09:49:48.973Z,101334.06
2022-11-02T09:51:02.298Z,101337.56
2022-11-02T09:52:07.733Z,101334.72
2022-11-02T09:53:17.755Z,101332.75
2022-11-02T09:54:29.714Z,101331.44
2022-11-02T09:55:38.949Z,101325.09
2022-11-02T09:56:43.000Z,101321.56
2022-11-02T09:57:49.495Z,101320.59
2022-11-02T09:59:00.337Z,101315.50
2022-11-02T10:00:05.393Z,101323.50
2022-11-02T10:01:44.330Z,101325.37
2022-11-02T10:03:15.398Z,101330.88
2022-11-02T10:04:48.801Z,101322.47
2022-11-02T10:06:15.824Z,101320.88
2022-11-02T10:07:24.683Z,101317.75
2022-11-02T10:08:51.245Z,101327.41
2022-11-02T10:10:03.566Z,101327.25
2022-11-02T10:11:19.638Z,101322.84
2022-11-02T10:12:47.894Z,101326.25
2022-11-02T10:14:00.235Z,101322.00
2022-11-02T10:15:11.238Z,101321.50
2022-11-02T10:16:19.741Z,101316.78
2022-11-02T10:17:26.591Z,101323.53
2022-11-02T10:18:30.436Z,101321.72
2022-11-02T10:19:37.161Z,101314.22
2022-11-02T10:20:45.723Z,101322.72
2022-11-02T10:21:52.717Z,101316.94
2022-11-02T10:23:03.535Z,101321.56
2022-11-02T10:24:18.555Z,101323.91
2022-11-02T10:25:22.189Z,101320.94
2022-11-02T10:26:29.250Z,101324.75
2022-11-02T10:27:38.053Z,101316.13
2022-11-02T10:28:44.445Z,101318.56
2022-11-02T10:29:57.443Z,101315.56
2022-11-02T10:31:02.588Z,101316.00
2022-11-02T10:32:05.435Z,101316.84
2022-11-02T10:33:15.186Z,101317.59
2022-11-02T10:34:27.313Z,101316.97
2022-11-02T10:36:16.307Z,101317.47
2022-11-02T10:37:50.902Z,101312.00
2022-11-02T10:39:05.307Z,101307.94
2022-11-02T10:40:55.795Z,101314.13
2022-11-02T10:42:04.263Z,101307.75
2022-11-02T10:43:22.314Z,101304.87
2022-11-02T10:44:36.628Z,101299.06
2022-11-02T10:46:24.112Z,101289.75
2022-11-02T10:47:33.399Z,101303.03
2022-11-02T10:48:46.259Z,101302.59
2022-11-02T10:50:30.439Z,101302.03
2022-11-02T10:51:33.762Z,101294.69
2022-11-02T10:52:39.789Z,101294.31
2022-11-02T10:53:48.368Z,101296.09
2022-11-02T10:54:51.906Z,101294.00
2022-11-02T10:56:03.453Z,101292.59
2022-11-02T10:57:13.975Z,101296.50
2022-11-02T10:58:21.517Z,101293.44
2022-11-02T10:59:24.554Z,101290.56
2022-11-02T11:00:36.103Z,101292.03
2022-11-02T11:01:46.936Z,101292.78
2022-11-02T11:03:13.135Z,101283.34
2022-11-02T11:04:30.021Z,101285.56
2022-11-02T11:05:56.486Z,101282.72
2022-11-02T11:07:06.617Z,101277.03
2022-11-02T11:08:29.267Z,101274.75
2022-11-02T11:09:52.929Z,101282.34
2022-11-02T11:11:09.310Z,101282.06
2022-11-02T11:12:23.557Z,101274.88
2022-11-02T11:16:20.636Z,101273.16
2022-11-02T11:20:35.801Z,101279.94
2022-11-02T11:21:41.145Z,101283.09
2022-11-02T11:22:43.782Z,101288.16
2022-11-02T11:23:46.377Z,101286.84
2022-11-02T11:24:49.118Z,101282.59
2022-11-02T11:26:05.425Z,101284.78
2022-11-02T11:27:08.254Z,101287.63
2022-11-02T11:28:37.982Z,101286.44
2022-11-02T11:29:46.938Z,101295.19
2022-11-02T11:31:06.449Z,101284.53
2022-11-02T11:32:28.664Z,101286.97
2022-11-02T11:33:41.159Z,101277.03
2022-11-02T11:34:47.122Z,101284.06
2022-11-02T11:35:51.219Z,101290.19
2022-11-02T11:37:08.856Z,101284.03
2022-11-02T11:38:21.826Z,101279.53
2022-11-02T11:39:28.456Z,101278.13
2022-11-02T11:40:37.302Z,101283.78
2022-11-02T11:41:41.553Z,101277.97
2022-11-02T11:42:44.294Z,101278.25
2022-11-02T11:43:49.217Z,101264.69
2022-11-02T11:44:58.642Z,101266.81
2022-11-02T11:46:07.457Z,101269.53
2022-11-02T11:47:12.030Z,101267.31
2022-11-02T11:48:40.030Z,101270.75
2022-11-02T11:50:11.771Z,101272.31
2022-11-02T11:51:45.246Z,101266.03
2022-11-02T11:53:07.053Z,101262.94
2022-11-02T11:54:27.504Z,101258.66
2022-11-02T11:55:32.157Z,101264.31
2022-11-02T11:56:35.281Z,101258.78
2022-11-02T11:58:51.785Z,101267.97
2022-11-02T11:59:58.871Z,101251.75
2022-11-02T12:01:10.502Z,101251.75
2022-11-02T12:02:28.106Z,101263.72
2022-11-02T12:03:31.174Z,101269.53
2022-11-02T12:04:37.596Z,101263.09
2022-11-02T12:06:09.686Z,101260.94
2022-11-02T12:07:30.165Z,101256.94
2022-11-02T12:08:45.257Z,101258.41
2022-11-02T12:10:05.402Z,101257.44
2022-11-02T12:11:14.925Z,101258.44
2022-11-02T12:12:52.306Z,101258.78
2022-11-02T12:14:06.770Z,101259.50
2022-11-02T12:15:34.322Z,101266.25
2022-11-02T12:22:43.088Z,101260.28
2022-11-02T12:24:11.349Z,101264.72
2022-11-02T12:25:54.780Z,101264.53
2022-11-02T12:27:22.120Z,101270.63
2022-11-02T12:29:03.985Z,101265.78
2022-11-02T12:30:21.974Z,101263.03
2022-11-02T12:31:46.006Z,101261.41
2022-11-02T12:33:17.375Z,101259.38
2022-11-02T12:35:02.954Z,101262.41
2022-11-02T12:36:17.607Z,101261.81
2022-11-02T12:37:57.864Z,101262.81
2022-11-02T12:39:04.545Z,101257.78
2022-11-02T12:40:11.349Z,101256.47
2022-11-02T12:41:32.400Z,101253.87
2022-11-02T12:42:43.753Z,101250.66
2022-11-02T12:43:54.966Z,101250.06
2022-11-02T12:45:22.457Z,101250.00
2022-11-02T12:46:49.076Z,101252.50
2022-11-02T12:47:59.195Z,101252.41
2022-11-02T12:49:13.874Z,101253.87
2022-11-02T12:50:28.583Z,101251.47
2022-11-02T12:51:44.814Z,101249.47
2022-11-02T12:52:47.405Z,101252.78
2022-11-02T12:54:06.392Z,101250.53
2022-11-02T12:55:38.515Z,101250.41
2022-11-02T12:56:50.926Z,101254.16
2022-11-02T12:58:01.481Z,101251.53
2022-11-02T12:59:05.455Z,101248.47
2022-11-02T13:00:25.172Z,101247.25
2022-11-02T13:01:41.239Z,101243.13
2022-11-02T13:02:46.637Z,101239.63
2022-11-02T13:04:12.572Z,101238.94
2022-11-02T13:05:21.430Z,101233.84
2022-11-02T13:06:32.125Z,101242.12
2022-11-02T13:07:41.436Z,101225.62
2022-11-02T13:08:53.199Z,101230.75
2022-11-02T13:10:15.560Z,101227.44